sensor_id;sensor_type;location;lat;lon;timestamp;P1;durP1;ratioP1;P2;durP2;ratioP2
6249;SDS011;3158;52.148;11.568;2023-04-16T00:00:53;27.17;;;16.00;;
6249;SDS011;3158;52.148;11.568;2023-04-16T00:05:54;24.17;;;15.50;;
6249;SDS011;3158;52.148;11.568;2023-04-16T00:10:55;22.83;;;15.18;;
6249;SDS011;3158;52.148;11.568;2023-04-16T00:15:57;24.38;;;14.68;;
6249;SDS011;3158;52.148;11.568;2023-04-16T00:20:58;23.27;;;13.90;;
6249;SDS011;3158;52.148;11.568;2023-04-16T00:25:59;26.58;;;15.63;;
6249;SDS011;3158;52.148;11.568;2023-04-16T00:31:00;26.85;;;15.55;;
6249;SDS011;3158;52.148;11.568;2023-04-16T00:36:01;23.85;;;14.52;;
6249;SDS011;3158;52.148;11.568;2023-04-16T00:41:02;22.15;;;13.82;;
6249;SDS011;3158;52.148;11.568;2023-04-16T00:46:03;24.40;;;14.13;;
6249;SDS011;3158;52.148;11.568;2023-04-16T00:51:06;21.25;;;14.70;;
6249;SDS011;3158;52.148;11.568;2023-04-16T00:56:07;22.75;;;14.35;;
6249;SDS011;3158;52.148;11.568;2023-04-16T01:01:09;21.13;;;12.90;;
6249;SDS011;3158;52.148;11.568;2023-04-16T01:06:10;20.65;;;13.02;;
6249;SDS011;3158;52.148;11.568;2023-04-16T01:11:12;18.83;;;13.50;;
6249;SDS011;3158;52.148;11.568;2023-04-16T01:16:15;22.60;;;13.23;;
6249;SDS011;3158;52.148;11.568;2023-04-16T01:21:16;21.67;;;12.63;;
6249;SDS011;3158;52.148;11.568;2023-04-16T01:26:17;29.40;;;14.32;;
6249;SDS011;3158;52.148;11.568;2023-04-16T01:31:18;20.75;;;13.48;;
6249;SDS011;3158;52.148;11.568;2023-04-16T01:36:29;20.13;;;13.23;;
6249;SDS011;3158;52.148;11.568;2023-04-16T01:41:30;20.40;;;12.48;;
6249;SDS011;3158;52.148;11.568;2023-04-16T01:46:32;21.35;;;13.05;;
6249;SDS011;3158;52.148;11.568;2023-04-16T01:51:33;24.88;;;13.73;;
6249;SDS011;3158;52.148;11.568;2023-04-16T01:56:34;20.90;;;12.73;;
6249;SDS011;3158;52.148;11.568;2023-04-16T02:01:35;17.55;;;12.85;;
6249;SDS011;3158;52.148;11.568;2023-04-16T02:06:37;24.05;;;13.48;;
6249;SDS011;3158;52.148;11.568;2023-04-16T02:11:38;22.58;;;12.63;;
6249;SDS011;3158;52.148;11.568;2023-04-16T02:16:39;21.08;;;12.27;;
6249;SDS011;3158;52.148;11.568;2023-04-16T02:22:09;18.20;;;11.82;;
6249;SDS011;3158;52.148;11.568;2023-04-16T02:27:10;17.08;;;11.43;;
6249;SDS011;3158;52.148;11.568;2023-04-16T02:32:12;19.60;;;12.73;;
6249;SDS011;3158;52.148;11.568;2023-04-16T02:37:16;20.40;;;12.85;;
6249;SDS011;3158;52.148;11.568;2023-04-16T02:42:17;19.52;;;12.88;;
6249;SDS011;3158;52.148;11.568;2023-04-16T02:47:18;20.98;;;12.70;;
6249;SDS011;3158;52.148;11.568;2023-04-16T02:52:19;22.88;;;13.10;;
6249;SDS011;3158;52.148;11.568;2023-04-16T02:57:20;23.77;;;13.70;;
6249;SDS011;3158;52.148;11.568;2023-04-16T03:02:21;19.55;;;12.70;;
6249;SDS011;3158;52.148;11.568;2023-04-16T03:07:23;22.10;;;13.75;;
6249;SDS011;3158;52.148;11.568;2023-04-16T03:12:24;24.02;;;13.10;;
6249;SDS011;3158;52.148;11.568;2023-04-16T03:17:25;24.63;;;12.95;;
6249;SDS011;3158;52.148;11.568;2023-04-16T03:22:25;21.35;;;12.75;;
6249;SDS011;3158;52.148;11.568;2023-04-16T03:27:26;22.33;;;12.52;;
6249;SDS011;3158;52.148;11.568;2023-04-16T03:32:28;22.92;;;11.60;;
6249;SDS011;3158;52.148;11.568;2023-04-16T03:37:29;19.60;;;12.68;;
6249;SDS011;3158;52.148;11.568;2023-04-16T03:42:31;33.00;;;13.75;;
6249;SDS011;3158;52.148;11.568;2023-04-16T03:47:32;24.42;;;12.90;;
6249;SDS011;3158;52.148;11.568;2023-04-16T03:52:36;27.50;;;12.75;;
6249;SDS011;3158;52.148;11.568;2023-04-16T03:57:37;26.00;;;13.52;;
6249;SDS011;3158;52.148;11.568;2023-04-16T04:02:43;22.95;;;12.63;;
6249;SDS011;3158;52.148;11.568;2023-04-16T04:07:51;22.33;;;13.40;;
6249;SDS011;3158;52.148;11.568;2023-04-16T04:12:52;24.42;;;14.07;;
6249;SDS011;3158;52.148;11.568;2023-04-16T04:17:53;25.75;;;13.40;;
6249;SDS011;3158;52.148;11.568;2023-04-16T04:22:54;22.60;;;13.85;;
6249;SDS011;3158;52.148;11.568;2023-04-16T04:27:58;27.38;;;14.40;;
6249;SDS011;3158;52.148;11.568;2023-04-16T04:32:59;26.88;;;14.60;;
6249;SDS011;3158;52.148;11.568;2023-04-16T04:38:01;28.58;;;14.32;;
6249;SDS011;3158;52.148;11.568;2023-04-16T04:43:03;27.55;;;14.68;;
6249;SDS011;3158;52.148;11.568;2023-04-16T04:48:05;25.63;;;15.30;;
6249;SDS011;3158;52.148;11.568;2023-04-16T04:53:06;28.85;;;14.85;;
6249;SDS011;3158;52.148;11.568;2023-04-16T04:58:11;30.48;;;15.23;;
6249;SDS011;3158;52.148;11.568;2023-04-16T05:03:17;22.77;;;14.68;;
6249;SDS011;3158;52.148;11.568;2023-04-16T05:08:19;28.33;;;15.10;;
6249;SDS011;3158;52.148;11.568;2023-04-16T05:13:20;30.45;;;15.35;;
6249;SDS011;3158;52.148;11.568;2023-04-16T05:18:21;30.52;;;14.70;;
6249;SDS011;3158;52.148;11.568;2023-04-16T05:23:22;24.92;;;13.95;;
6249;SDS011;3158;52.148;11.568;2023-04-16T05:28:23;38.20;;;15.40;;
6249;SDS011;3158;52.148;11.568;2023-04-16T05:33:24;24.83;;;14.40;;
6249;SDS011;3158;52.148;11.568;2023-04-16T05:38:25;29.67;;;14.52;;
6249;SDS011;3158;52.148;11.568;2023-04-16T05:43:26;36.00;;;14.60;;
6249;SDS011;3158;52.148;11.568;2023-04-16T05:48:27;23.00;;;14.40;;
6249;SDS011;3158;52.148;11.568;2023-04-16T05:53:28;24.48;;;14.45;;
6249;SDS011;3158;52.148;11.568;2023-04-16T05:58:29;23.90;;;15.13;;
6249;SDS011;3158;52.148;11.568;2023-04-16T06:03:30;32.20;;;14.27;;
6249;SDS011;3158;52.148;11.568;2023-04-16T06:08:31;30.00;;;15.32;;
6249;SDS011;3158;52.148;11.568;2023-04-16T06:13:32;28.58;;;15.65;;
6249;SDS011;3158;52.148;11.568;2023-04-16T06:18:33;28.42;;;16.23;;
6249;SDS011;3158;52.148;11.568;2023-04-16T06:23:34;30.33;;;14.18;;
6249;SDS011;3158;52.148;11.568;2023-04-16T06:28:35;30.23;;;15.20;;
6249;SDS011;3158;52.148;11.568;2023-04-16T06:33:36;29.73;;;15.25;;
6249;SDS011;3158;52.148;11.568;2023-04-16T06:38:37;28.83;;;15.98;;
6249;SDS011;3158;52.148;11.568;2023-04-16T06:43:38;27.75;;;15.25;;
6249;SDS011;3158;52.148;11.568;2023-04-16T06:48:40;27.00;;;14.77;;
6249;SDS011;3158;52.148;11.568;2023-04-16T06:53:41;29.95;;;15.80;;
6249;SDS011;3158;52.148;11.568;2023-04-16T06:58:42;29.88;;;15.18;;
6249;SDS011;3158;52.148;11.568;2023-04-16T07:03:43;29.25;;;14.18;;
6249;SDS011;3158;52.148;11.568;2023-04-16T07:08:44;30.25;;;14.57;;
6249;SDS011;3158;52.148;11.568;2023-04-16T07:13:45;33.25;;;15.25;;
6249;SDS011;3158;52.148;11.568;2023-04-16T07:18:46;29.85;;;15.35;;
6249;SDS011;3158;52.148;11.568;2023-04-16T07:23:47;29.60;;;16.10;;
6249;SDS011;3158;52.148;11.568;2023-04-16T07:28:48;32.08;;;16.65;;
6249;SDS011;3158;52.148;11.568;2023-04-16T07:33:49;33.20;;;16.42;;
6249;SDS011;3158;52.148;11.568;2023-04-16T07:38:50;32.33;;;17.40;;
6249;SDS011;3158;52.148;11.568;2023-04-16T07:43:51;27.63;;;15.48;;
6249;SDS011;3158;52.148;11.568;2023-04-16T07:48:52;32.70;;;16.90;;
6249;SDS011;3158;52.148;11.568;2023-04-16T07:53:53;37.72;;;16.10;;
6249;SDS011;3158;52.148;11.568;2023-04-16T07:58:54;42.67;;;17.33;;
6249;SDS011;3158;52.148;11.568;2023-04-16T08:03:55;37.13;;;17.73;;
6249;SDS011;3158;52.148;11.568;2023-04-16T08:08:56;31.52;;;16.95;;
6249;SDS011;3158;52.148;11.568;2023-04-16T08:13:57;34.85;;;17.42;;
6249;SDS011;3158;52.148;11.568;2023-04-16T08:18:58;34.38;;;16.83;;
6249;SDS011;3158;52.148;11.568;2023-04-16T08:24:00;31.75;;;17.25;;
6249;SDS011;3158;52.148;11.568;2023-04-16T08:29:01;31.17;;;15.70;;
6249;SDS011;3158;52.148;11.568;2023-04-16T08:34:02;34.38;;;15.93;;
6249;SDS011;3158;52.148;11.568;2023-04-16T08:39:03;30.60;;;16.02;;
6249;SDS011;3158;52.148;11.568;2023-04-16T08:44:06;35.90;;;16.48;;
6249;SDS011;3158;52.148;11.568;2023-04-16T08:49:08;29.40;;;16.48;;
6249;SDS011;3158;52.148;11.568;2023-04-16T08:54:17;31.52;;;16.63;;
6249;SDS011;3158;52.148;11.568;2023-04-16T08:59:20;31.58;;;15.95;;
6249;SDS011;3158;52.148;11.568;2023-04-16T09:04:22;31.13;;;15.88;;
6249;SDS011;3158;52.148;11.568;2023-04-16T09:09:25;31.02;;;16.00;;
6249;SDS011;3158;52.148;11.568;2023-04-16T09:14:26;28.55;;;15.60;;
6249;SDS011;3158;52.148;11.568;2023-04-16T09:19:27;32.35;;;15.25;;
6249;SDS011;3158;52.148;11.568;2023-04-16T09:24:28;31.30;;;16.45;;
6249;SDS011;3158;52.148;11.568;2023-04-16T09:29:33;40.42;;;18.88;;
6249;SDS011;3158;52.148;11.568;2023-04-16T09:34:54;39.63;;;19.52;;
6249;SDS011;3158;52.148;11.568;2023-04-16T09:39:59;42.38;;;19.83;;
6249;SDS011;3158;52.148;11.568;2023-04-16T09:45:01;34.60;;;18.38;;
6249;SDS011;3158;52.148;11.568;2023-04-16T09:50:02;36.05;;;17.60;;
6249;SDS011;3158;52.148;11.568;2023-04-16T09:55:04;34.65;;;18.33;;
6249;SDS011;3158;52.148;11.568;2023-04-16T10:00:05;42.22;;;19.33;;
6249;SDS011;3158;52.148;11.568;2023-04-16T10:05:08;43.92;;;19.80;;
6249;SDS011;3158;52.148;11.568;2023-04-16T10:10:09;35.83;;;18.80;;
6249;SDS011;3158;52.148;11.568;2023-04-16T10:15:10;34.60;;;16.63;;
6249;SDS011;3158;52.148;11.568;2023-04-16T10:20:11;33.38;;;17.30;;
6249;SDS011;3158;52.148;11.568;2023-04-16T10:25:12;27.92;;;15.95;;
6249;SDS011;3158;52.148;11.568;2023-04-16T10:30:14;32.78;;;15.90;;
6249;SDS011;3158;52.148;11.568;2023-04-16T10:35:18;31.30;;;16.05;;
6249;SDS011;3158;52.148;11.568;2023-04-16T10:40:21;29.15;;;14.60;;
6249;SDS011;3158;52.148;11.568;2023-04-16T10:45:29;29.30;;;16.90;;
6249;SDS011;3158;52.148;11.568;2023-04-16T10:50:34;33.15;;;15.07;;
6249;SDS011;3158;52.148;11.568;2023-04-16T10:55:38;21.23;;;12.60;;
6249;SDS011;3158;52.148;11.568;2023-04-16T11:00:48;26.45;;;13.65;;
6249;SDS011;3158;52.148;11.568;2023-04-16T11:05:52;31.70;;;14.32;;
6249;SDS011;3158;52.148;11.568;2023-04-16T11:10:56;29.33;;;14.63;;
6249;SDS011;3158;52.148;11.568;2023-04-16T11:15:58;34.72;;;16.05;;
6249;SDS011;3158;52.148;11.568;2023-04-16T11:20:59;26.00;;;16.13;;
6249;SDS011;3158;52.148;11.568;2023-04-16T11:25:59;27.95;;;15.20;;
6249;SDS011;3158;52.148;11.568;2023-04-16T11:31:09;25.17;;;14.85;;
6249;SDS011;3158;52.148;11.568;2023-04-16T11:36:10;33.10;;;16.10;;
6249;SDS011;3158;52.148;11.568;2023-04-16T11:41:17;31.73;;;15.32;;
6249;SDS011;3158;52.148;11.568;2023-04-16T11:46:18;36.35;;;17.08;;
6249;SDS011;3158;52.148;11.568;2023-04-16T11:51:20;28.48;;;15.13;;
6249;SDS011;3158;52.148;11.568;2023-04-16T11:56:28;29.30;;;15.15;;
6249;SDS011;3158;52.148;11.568;2023-04-16T12:01:29;30.05;;;15.23;;
6249;SDS011;3158;52.148;11.568;2023-04-16T12:06:30;28.92;;;17.15;;
6249;SDS011;3158;52.148;11.568;2023-04-16T12:11:41;32.78;;;14.85;;
6249;SDS011;3158;52.148;11.568;2023-04-16T12:16:42;29.45;;;15.70;;
6249;SDS011;3158;52.148;11.568;2023-04-16T12:21:44;33.63;;;15.93;;
6249;SDS011;3158;52.148;11.568;2023-04-16T12:26:46;28.95;;;15.07;;
6249;SDS011;3158;52.148;11.568;2023-04-16T12:31:48;29.30;;;14.93;;
6249;SDS011;3158;52.148;11.568;2023-04-16T12:37:02;28.20;;;14.98;;
6249;SDS011;3158;52.148;11.568;2023-04-16T12:42:03;26.80;;;14.48;;
6249;SDS011;3158;52.148;11.568;2023-04-16T12:47:08;27.20;;;14.18;;
6249;SDS011;3158;52.148;11.568;2023-04-16T12:52:09;26.55;;;12.80;;
6249;SDS011;3158;52.148;11.568;2023-04-16T12:57:10;24.25;;;13.90;;
6249;SDS011;3158;52.148;11.568;2023-04-16T13:02:12;28.08;;;13.63;;
6249;SDS011;3158;52.148;11.568;2023-04-16T13:07:13;22.92;;;12.80;;
6249;SDS011;3158;52.148;11.568;2023-04-16T13:12:14;20.60;;;12.45;;
6249;SDS011;3158;52.148;11.568;2023-04-16T13:17:15;21.23;;;11.98;;
6249;SDS011;3158;52.148;11.568;2023-04-16T13:22:16;15.50;;;9.95;;
6249;SDS011;3158;52.148;11.568;2023-04-16T13:27:17;12.75;;;9.07;;
6249;SDS011;3158;52.148;11.568;2023-04-16T13:32:19;16.00;;;10.07;;
6249;SDS011;3158;52.148;11.568;2023-04-16T13:37:20;17.20;;;10.50;;
6249;SDS011;3158;52.148;11.568;2023-04-16T13:42:21;17.10;;;10.68;;
6249;SDS011;3158;52.148;11.568;2023-04-16T13:47:22;14.05;;;9.85;;
6249;SDS011;3158;52.148;11.568;2023-04-16T13:52:23;12.90;;;9.25;;
6249;SDS011;3158;52.148;11.568;2023-04-16T13:57:24;13.15;;;8.65;;
6249;SDS011;3158;52.148;11.568;2023-04-16T14:02:26;13.35;;;8.80;;
6249;SDS011;3158;52.148;11.568;2023-04-16T14:07:27;11.93;;;8.07;;
6249;SDS011;3158;52.148;11.568;2023-04-16T14:12:28;11.65;;;7.05;;
6249;SDS011;3158;52.148;11.568;2023-04-16T14:17:30;11.10;;;6.30;;
6249;SDS011;3158;52.148;11.568;2023-04-16T14:22:31;10.77;;;6.95;;
6249;SDS011;3158;52.148;11.568;2023-04-16T14:27:32;9.35;;;7.03;;
6249;SDS011;3158;52.148;11.568;2023-04-16T14:32:34;7.70;;;6.82;;
6249;SDS011;3158;52.148;11.568;2023-04-16T14:37:35;6.45;;;5.57;;
6249;SDS011;3158;52.148;11.568;2023-04-16T14:42:37;5.43;;;4.93;;
6249;SDS011;3158;52.148;11.568;2023-04-16T14:47:38;6.40;;;5.32;;
6249;SDS011;3158;52.148;11.568;2023-04-16T14:52:44;6.55;;;5.50;;
6249;SDS011;3158;52.148;11.568;2023-04-16T14:57:45;6.80;;;5.05;;
6249;SDS011;3158;52.148;11.568;2023-04-16T15:02:46;6.47;;;5.32;;
6249;SDS011;3158;52.148;11.568;2023-04-16T15:07:47;6.55;;;4.47;;
6249;SDS011;3158;52.148;11.568;2023-04-16T15:12:48;7.13;;;5.32;;
6249;SDS011;3158;52.148;11.568;2023-04-16T15:17:49;5.07;;;4.68;;
6249;SDS011;3158;52.148;11.568;2023-04-16T15:22:51;5.10;;;4.47;;
6249;SDS011;3158;52.148;11.568;2023-04-16T15:27:52;5.00;;;4.65;;
6249;SDS011;3158;52.148;11.568;2023-04-16T15:32:53;9.32;;;4.72;;
6249;SDS011;3158;52.148;11.568;2023-04-16T15:37:54;6.32;;;4.75;;
6249;SDS011;3158;52.148;11.568;2023-04-16T15:42:55;5.18;;;4.68;;
6249;SDS011;3158;52.148;11.568;2023-04-16T15:47:56;4.72;;;4.07;;
6249;SDS011;3158;52.148;11.568;2023-04-16T15:52:57;5.57;;;4.70;;
6249;SDS011;3158;52.148;11.568;2023-04-16T15:57:58;10.25;;;4.78;;
6249;SDS011;3158;52.148;11.568;2023-04-16T16:03:01;4.68;;;4.32;;
6249;SDS011;3158;52.148;11.568;2023-04-16T16:08:02;5.03;;;4.57;;
6249;SDS011;3158;52.148;11.568;2023-04-16T16:13:03;5.38;;;4.95;;
6249;SDS011;3158;52.148;11.568;2023-04-16T16:18:04;5.30;;;4.60;;
6249;SDS011;3158;52.148;11.568;2023-04-16T16:23:05;5.55;;;5.05;;
6249;SDS011;3158;52.148;11.568;2023-04-16T16:28:06;5.30;;;4.90;;
6249;SDS011;3158;52.148;11.568;2023-04-16T16:33:08;4.97;;;4.65;;
6249;SDS011;3158;52.148;11.568;2023-04-16T16:38:09;5.60;;;5.03;;
6249;SDS011;3158;52.148;11.568;2023-04-16T16:43:10;5.68;;;5.03;;
6249;SDS011;3158;52.148;11.568;2023-04-16T16:48:11;5.55;;;5.05;;
6249;SDS011;3158;52.148;11.568;2023-04-16T16:53:12;6.13;;;5.53;;
6249;SDS011;3158;52.148;11.568;2023-04-16T16:58:13;7.00;;;5.28;;
6249;SDS011;3158;52.148;11.568;2023-04-16T17:03:14;5.72;;;5.25;;
6249;SDS011;3158;52.148;11.568;2023-04-16T17:08:15;6.32;;;5.10;;
6249;SDS011;3158;52.148;11.568;2023-04-16T17:13:16;5.18;;;4.68;;
6249;SDS011;3158;52.148;11.568;2023-04-16T17:18:19;5.57;;;5.07;;
6249;SDS011;3158;52.148;11.568;2023-04-16T17:23:23;8.20;;;5.60;;
6249;SDS011;3158;52.148;11.568;2023-04-16T17:28:24;9.20;;;6.53;;
6249;SDS011;3158;52.148;11.568;2023-04-16T17:33:26;7.60;;;4.88;;
6249;SDS011;3158;52.148;11.568;2023-04-16T17:38:27;4.10;;;3.88;;
6249;SDS011;3158;52.148;11.568;2023-04-16T17:43:28;4.78;;;4.47;;
6249;SDS011;3158;52.148;11.568;2023-04-16T17:48:29;4.97;;;4.47;;
6249;SDS011;3158;52.148;11.568;2023-04-16T17:53:30;7.18;;;4.63;;
6249;SDS011;3158;52.148;11.568;2023-04-16T17:58:31;5.13;;;4.38;;
6249;SDS011;3158;52.148;11.568;2023-04-16T18:03:34;7.05;;;4.50;;
6249;SDS011;3158;52.148;11.568;2023-04-16T18:08:35;4.43;;;3.95;;
6249;SDS011;3158;52.148;11.568;2023-04-16T18:13:36;4.78;;;4.38;;
6249;SDS011;3158;52.148;11.568;2023-04-16T18:18:37;5.25;;;4.88;;
6249;SDS011;3158;52.148;11.568;2023-04-16T18:23:38;6.05;;;5.45;;
6249;SDS011;3158;52.148;11.568;2023-04-16T18:28:40;5.40;;;4.90;;
6249;SDS011;3158;52.148;11.568;2023-04-16T18:33:41;5.75;;;5.15;;
6249;SDS011;3158;52.148;11.568;2023-04-16T18:38:42;5.93;;;5.38;;
6249;SDS011;3158;52.148;11.568;2023-04-16T18:43:43;6.53;;;4.63;;
6249;SDS011;3158;52.148;11.568;2023-04-16T18:48:45;5.18;;;4.68;;
6249;SDS011;3158;52.148;11.568;2023-04-16T18:53:45;5.30;;;4.90;;
6249;SDS011;3158;52.148;11.568;2023-04-16T18:58:46;6.85;;;5.22;;
6249;SDS011;3158;52.148;11.568;2023-04-16T19:03:48;6.85;;;6.18;;
6249;SDS011;3158;52.148;11.568;2023-04-16T19:08:49;5.45;;;5.00;;
6249;SDS011;3158;52.148;11.568;2023-04-16T19:13:50;7.07;;;5.68;;
6249;SDS011;3158;52.148;11.568;2023-04-16T19:18:51;6.68;;;5.90;;
6249;SDS011;3158;52.148;11.568;2023-04-16T19:23:52;6.15;;;5.40;;
6249;SDS011;3158;52.148;11.568;2023-04-16T19:28:53;7.55;;;6.25;;
6249;SDS011;3158;52.148;11.568;2023-04-16T19:33:54;8.77;;;5.75;;
6249;SDS011;3158;52.148;11.568;2023-04-16T19:38:55;9.38;;;6.82;;
6249;SDS011;3158;52.148;11.568;2023-04-16T19:43:56;9.18;;;6.50;;
6249;SDS011;3158;52.148;11.568;2023-04-16T19:48:57;6.90;;;6.20;;
6249;SDS011;3158;52.148;11.568;2023-04-16T19:53:58;5.53;;;5.13;;
6249;SDS011;3158;52.148;11.568;2023-04-16T19:59:00;6.50;;;5.90;;
6249;SDS011;3158;52.148;11.568;2023-04-16T20:04:01;6.45;;;5.82;;
6249;SDS011;3158;52.148;11.568;2023-04-16T20:09:02;6.20;;;5.65;;
6249;SDS011;3158;52.148;11.568;2023-04-16T20:14:03;6.07;;;5.47;;
6249;SDS011;3158;52.148;11.568;2023-04-16T20:19:04;7.50;;;6.05;;
6249;SDS011;3158;52.148;11.568;2023-04-16T20:24:07;7.22;;;6.50;;
6249;SDS011;3158;52.148;11.568;2023-04-16T20:29:09;6.68;;;5.82;;
6249;SDS011;3158;52.148;11.568;2023-04-16T20:34:10;7.82;;;6.78;;
6249;SDS011;3158;52.148;11.568;2023-04-16T20:39:11;9.43;;;6.00;;
6249;SDS011;3158;52.148;11.568;2023-04-16T20:44:12;8.43;;;5.88;;
6249;SDS011;3158;52.148;11.568;2023-04-16T20:49:17;7.05;;;6.40;;
6249;SDS011;3158;52.148;11.568;2023-04-16T20:54:18;8.85;;;6.13;;
6249;SDS011;3158;52.148;11.568;2023-04-16T20:59:19;6.85;;;6.18;;
6249;SDS011;3158;52.148;11.568;2023-04-16T21:04:20;9.82;;;6.22;;
6249;SDS011;3158;52.148;11.568;2023-04-16T21:09:21;5.53;;;5.13;;
6249;SDS011;3158;52.148;11.568;2023-04-16T21:14:23;7.38;;;5.68;;
6249;SDS011;3158;52.148;11.568;2023-04-16T21:19:24;5.80;;;4.78;;
6249;SDS011;3158;52.148;11.568;2023-04-16T21:24:25;5.60;;;5.10;;
6249;SDS011;3158;52.148;11.568;2023-04-16T21:29:26;4.93;;;4.53;;
6249;SDS011;3158;52.148;11.568;2023-04-16T21:34:27;6.72;;;4.05;;
6249;SDS011;3158;52.148;11.568;2023-04-16T21:39:28;5.93;;;3.78;;
6249;SDS011;3158;52.148;11.568;2023-04-16T21:44:29;3.15;;;3.05;;
6249;SDS011;3158;52.148;11.568;2023-04-16T21:49:30;3.83;;;3.53;;
6249;SDS011;3158;52.148;11.568;2023-04-16T21:54:31;3.72;;;3.53;;
6249;SDS011;3158;52.148;11.568;2023-04-16T21:59:32;3.50;;;3.30;;
6249;SDS011;3158;52.148;11.568;2023-04-16T22:04:33;3.38;;;3.28;;
6249;SDS011;3158;52.148;11.568;2023-04-16T22:09:38;3.38;;;2.65;;
6249;SDS011;3158;52.148;11.568;2023-04-16T22:14:39;3.15;;;2.97;;
6249;SDS011;3158;52.148;11.568;2023-04-16T22:19:40;3.38;;;3.05;;
6249;SDS011;3158;52.148;11.568;2023-04-16T22:24:42;2.75;;;2.65;;
6249;SDS011;3158;52.148;11.568;2023-04-16T22:29:43;3.03;;;2.83;;
6249;SDS011;3158;52.148;11.568;2023-04-16T22:34:44;2.75;;;2.65;;
6249;SDS011;3158;52.148;11.568;2023-04-16T22:39:45;2.42;;;2.33;;
6249;SDS011;3158;52.148;11.568;2023-04-16T22:44:46;2.35;;;2.25;;
6249;SDS011;3158;52.148;11.568;2023-04-16T22:49:47;3.05;;;2.92;;
6249;SDS011;3158;52.148;11.568;2023-04-16T22:54:49;2.30;;;2.20;;
6249;SDS011;3158;52.148;11.568;2023-04-16T22:59:50;2.78;;;2.67;;
6249;SDS011;3158;52.148;11.568;2023-04-16T23:04:52;3.25;;;3.05;;
6249;SDS011;3158;52.148;11.568;2023-04-16T23:09:53;3.20;;;2.97;;
6249;SDS011;3158;52.148;11.568;2023-04-16T23:14:54;3.65;;;3.13;;
6249;SDS011;3158;52.148;11.568;2023-04-16T23:19:55;3.50;;;3.30;;
6249;SDS011;3158;52.148;11.568;2023-04-16T23:24:56;3.30;;;3.10;;
6249;SDS011;3158;52.148;11.568;2023-04-16T23:29:57;3.55;;;3.35;;
6249;SDS011;3158;52.148;11.568;2023-04-16T23:34:59;3.67;;;3.47;;
6249;SDS011;3158;52.148;11.568;2023-04-16T23:40:00;3.55;;;3.35;;
6249;SDS011;3158;52.148;11.568;2023-04-16T23:45:01;3.97;;;3.63;;
6249;SDS011;3158;52.148;11.568;2023-04-16T23:50:02;4.55;;;4.18;;
6249;SDS011;3158;52.148;11.568;2023-04-16T23:55:03;3.83;;;3.53;;
